Pearl, Illinois
Current Conditions -  °F | °C
As of 9:35 PM on Monday 20 Oct 2014 (Local Time) from KPPQ Reporting Station
Clear Clear  
Wind Chill: 53°   Ceiling: Unl
Heat Index: 53°   Visibility: 10mi
Dew Point: 45°   Wind: 3mph
Humidity: 75%   Direction: 280°W
Pressure: 30.03"   Gusts: NA
Location:  39.46°N, 90.63°W
Report Text: KPPQ 210235Z AUTO 28003KT 10SM CLR 11/07 A3003 RMK AO2 T01140072
Loading
Personal Weather Stations






























Interactive Weather Map
Tropical Storm Tracking
New forecast layout! Learn more

10-Day Weather Forecast

Advertisements
Track Severe Weather on mobile